Weather at Along Airport

Public forecast

Using degrees Celsius for public forecast. Weather courtesy of forecast.io.

Closest aviation weather report (METAR) to Along Airport

Report is more than 6 hours old.

Closest report is Dibrugarh Airport, 43.1 nm (79.7 km) SSE. Retrieved 2020/09/24 12:00 UTC (8 hours ago):

VEMN 241200Z 09004KT 1500 -RA SCT018 FEW025CB BKN100 27/26 Q1004 NOSIG

Aviation forecast (TAF) for Along Airport

Forecast is more than 12 hours old.

Retrieved 2019/09/10 06:30 UTC (1 year ago):

TAF VEAN 100330Z 1006/1018 09008KT 6000 SCT020 SCT025 BKN090 TEMPO 1014/1018 3000 TSRA SCT025 FEW030CB BKN090